createdAt,value
2018-08-28T09:32:49.878Z,73.50
2018-08-28T09:35:18.106Z,74.30
2018-08-28T09:37:46.416Z,73.30
2018-08-28T09:40:14.625Z,72.60
2018-08-28T09:42:42.985Z,73.10
2018-08-28T09:45:11.221Z,73.10
2018-08-28T09:47:39.436Z,72.50
2018-08-28T09:50:07.743Z,72.30
2018-08-28T09:52:35.908Z,71.60
2018-08-28T09:55:04.222Z,70.70
2018-08-28T09:57:32.524Z,70.20
2018-08-28T10:00:00.925Z,70.70
2018-08-28T10:02:29.165Z,70.70
2018-08-28T10:04:57.483Z,70.40
2018-08-28T10:07:25.576Z,69.50
2018-08-28T10:09:53.784Z,68.90
2018-08-28T10:12:21.977Z,70.20
2018-08-28T10:14:50.192Z,68.00
2018-08-28T10:17:18.484Z,68.40
2018-08-28T10:19:46.732Z,67.40
2018-08-28T10:22:15.025Z,67.60
2018-08-28T10:24:43.290Z,68.10
2018-08-28T10:27:11.511Z,67.50
2018-08-28T10:29:39.757Z,66.80
2018-08-28T10:32:08.035Z,67.20
2018-08-28T10:34:36.203Z,67.20
2018-08-28T10:37:04.671Z,66.30
2018-08-28T10:39:32.931Z,65.50
2018-08-28T10:42:01.161Z,63.10
2018-08-28T10:44:29.385Z,62.80
2018-08-28T10:46:57.689Z,60.10
2018-08-28T10:49:25.866Z,58.80
2018-08-28T10:51:54.102Z,60.20
2018-08-28T10:54:22.301Z,57.90
2018-08-28T10:56:50.506Z,56.60
2018-08-28T10:59:18.757Z,56.60
2018-08-28T11:01:46.992Z,55.30
2018-08-28T11:04:15.209Z,55.80
2018-08-28T11:06:43.600Z,56.80
2018-08-28T11:09:11.873Z,56.60
2018-08-28T11:11:40.049Z,55.50
2018-08-28T11:14:08.257Z,54.20
2018-08-28T11:16:36.512Z,53.90
2018-08-28T11:19:04.749Z,54.30
2018-08-28T11:21:33.001Z,53.50
2018-08-28T11:24:01.222Z,53.90
2018-08-28T11:26:29.523Z,53.20
2018-08-28T11:28:57.753Z,53.40
2018-08-28T11:31:26.035Z,53.60
2018-08-28T11:33:54.173Z,53.70
2018-08-28T11:36:22.486Z,53.70
2018-08-28T11:38:50.724Z,53.20
2018-08-28T11:41:18.974Z,53.60
2018-08-28T11:43:47.168Z,53.50
2018-08-28T11:46:15.404Z,53.60
2018-08-28T11:48:43.757Z,51.70
2018-08-28T11:51:12.057Z,50.50
2018-08-28T11:53:40.389Z,52.30
2018-08-28T11:56:08.642Z,52.50
2018-08-28T11:58:37.363Z,52.90
2018-08-28T12:01:05.589Z,52.10
2018-08-28T12:03:33.902Z,50.40
2018-08-28T12:06:03.181Z,48.20
2018-08-28T12:08:31.372Z,47.70
2018-08-28T12:10:59.601Z,47.10
2018-08-28T12:13:27.799Z,46.60
2018-08-28T12:15:56.009Z,46.40
2018-08-28T12:18:24.234Z,47.20
2018-08-28T12:20:52.491Z,45.70
2018-08-28T12:23:20.622Z,45.80
2018-08-28T12:25:49.789Z,45.70
2018-08-28T12:28:17.992Z,44.80
2018-08-28T12:30:46.253Z,44.20
2018-08-28T12:33:15.504Z,45.80
2018-08-28T12:35:43.825Z,45.40
2018-08-28T12:38:12.020Z,45.50
2018-08-28T12:40:40.345Z,45.90
2018-08-28T12:43:08.555Z,46.00
2018-08-28T12:45:37.853Z,45.20
2018-08-28T12:48:06.118Z,44.70
2018-08-28T12:50:34.318Z,45.30
2018-08-28T12:53:02.555Z,45.40
2018-08-28T12:55:30.846Z,46.10
2018-08-28T12:57:59.142Z,46.50
2018-08-28T13:00:27.528Z,46.70
2018-08-28T13:02:59.053Z,46.90
2018-08-28T13:05:27.322Z,46.00
2018-08-28T13:07:55.692Z,46.30
2018-08-28T13:10:23.952Z,46.30
2018-08-28T13:12:52.195Z,46.70
2018-08-28T13:15:28.019Z,46.60
2018-08-28T13:17:56.213Z,46.50
2018-08-28T13:20:24.489Z,46.40
2018-08-28T13:22:52.769Z,47.50
2018-08-28T13:25:21.021Z,46.10
2018-08-28T13:27:49.241Z,45.70
2018-08-28T13:30:17.609Z,45.50
2018-08-28T13:32:45.860Z,45.40
2018-08-28T13:35:14.169Z,45.90
2018-08-28T13:37:42.840Z,46.40
2018-08-28T13:40:11.622Z,47.10
2018-08-28T13:42:39.858Z,47.60
2018-08-28T13:45:08.177Z,46.40
2018-08-28T13:47:37.073Z,45.70
2018-08-28T13:50:05.438Z,44.70
2018-08-28T13:52:33.703Z,44.80
2018-08-28T13:55:01.905Z,45.10
2018-08-28T13:57:30.100Z,45.60
2018-08-28T13:59:58.366Z,45.70
2018-08-28T14:02:26.568Z,46.00
2018-08-28T14:05:12.402Z,45.90
2018-08-28T14:07:40.862Z,45.30
2018-08-28T14:10:09.097Z,44.90
2018-08-28T14:12:37.308Z,45.20
2018-08-28T14:15:05.631Z,44.70
2018-08-28T14:17:33.752Z,45.20
2018-08-28T14:20:01.985Z,45.20
2018-08-28T14:22:30.249Z,44.20
2018-08-28T14:24:58.552Z,44.60
2018-08-28T14:27:26.788Z,44.40
2018-08-28T14:29:55.101Z,44.60
2018-08-28T14:32:23.317Z,45.10
2018-08-28T14:34:51.516Z,45.90
2018-08-28T14:37:19.713Z,45.60
2018-08-28T14:39:47.913Z,46.10
2018-08-28T14:42:16.093Z,46.40
2018-08-28T14:44:44.370Z,46.40
2018-08-28T14:47:12.604Z,46.20
2018-08-28T14:49:40.867Z,46.00
2018-08-28T14:52:08.999Z,45.60
2018-08-28T14:54:37.216Z,46.30
2018-08-28T14:57:05.427Z,46.10
2018-08-28T14:59:33.630Z,45.40
2018-08-28T15:02:01.895Z,45.40
2018-08-28T15:04:30.113Z,45.70
2018-08-28T15:06:58.446Z,45.90
2018-08-28T15:09:26.559Z,45.30
2018-08-28T15:11:56.819Z,45.00
2018-08-28T15:14:25.001Z,44.50
2018-08-28T15:16:53.189Z,44.50
2018-08-28T15:19:21.432Z,45.20
2018-08-28T15:21:49.633Z,45.00
2018-08-28T15:24:17.999Z,45.40
2018-08-28T15:26:46.236Z,45.40
2018-08-28T15:29:14.456Z,45.60
2018-08-28T15:31:42.862Z,45.40
2018-08-28T15:34:11.062Z,45.60
2018-08-28T15:36:39.264Z,45.80
2018-08-28T15:39:07.670Z,46.00
2018-08-28T15:41:35.871Z,45.80
2018-08-28T15:44:04.093Z,46.30
2018-08-28T15:46:32.328Z,45.80
2018-08-28T15:49:00.671Z,45.60
2018-08-28T15:51:29.097Z,45.70
2018-08-28T15:53:57.136Z,46.10
2018-08-28T15:56:25.333Z,46.20
2018-08-28T15:58:53.604Z,46.50
2018-08-28T16:01:21.815Z,46.30
2018-08-28T16:03:50.041Z,46.50
2018-08-28T16:06:18.233Z,46.60
2018-08-28T16:08:46.474Z,46.70
2018-08-28T16:11:14.693Z,46.80
2018-08-28T16:13:43.146Z,46.80
2018-08-28T16:16:11.392Z,47.10
2018-08-28T16:18:39.620Z,47.20
2018-08-28T16:21:07.965Z,47.50
2018-08-28T16:23:38.543Z,47.80
2018-08-28T16:26:06.673Z,47.50
2018-08-28T16:28:34.973Z,47.60
2018-08-28T16:31:03.310Z,48.20
2018-08-28T16:33:31.561Z,48.30
2018-08-28T16:35:59.832Z,48.10
2018-08-28T16:38:28.544Z,48.00
2018-08-28T16:40:56.797Z,48.50
2018-08-28T16:43:25.022Z,48.40
2018-08-28T16:45:53.222Z,48.90
2018-08-28T16:48:21.525Z,48.60
2018-08-28T16:50:49.727Z,48.70
2018-08-28T16:53:17.942Z,48.80
2018-08-28T16:55:46.215Z,49.30
2018-08-28T16:58:15.397Z,49.20
2018-08-28T17:00:43.597Z,49.40
2018-08-28T17:03:11.760Z,49.40
2018-08-28T17:05:40.005Z,48.70
2018-08-28T17:08:08.181Z,48.80
2018-08-28T17:10:36.373Z,49.50
2018-08-28T17:13:04.576Z,49.50
2018-08-28T17:15:32.785Z,49.70
2018-08-28T17:18:00.950Z,51.70
2018-08-28T17:20:29.135Z,50.60
2018-08-28T17:22:57.305Z,51.40
2018-08-28T17:25:28.288Z,50.90
2018-08-28T17:27:56.546Z,51.60
2018-08-28T17:30:24.731Z,52.40
2018-08-28T17:32:53.939Z,52.00
2018-08-28T17:35:25.798Z,52.30
2018-08-28T17:37:54.286Z,52.80
2018-08-28T17:40:24.493Z,52.90
2018-08-28T17:42:59.369Z,53.10
2018-08-28T17:45:27.582Z,54.90
2018-08-28T17:47:55.796Z,55.10
2018-08-28T17:50:25.087Z,55.30
2018-08-28T17:52:54.502Z,56.10
2018-08-28T17:55:24.005Z,55.70
2018-08-28T17:57:52.385Z,56.60
2018-08-28T18:03:14.365Z,57.20
2018-08-28T18:05:42.689Z,58.00
2018-08-28T18:08:14.717Z,58.80
2018-08-28T18:10:43.074Z,58.20
2018-08-28T18:13:11.686Z,59.40
2018-08-28T18:15:41.054Z,60.00
2018-08-28T18:18:11.575Z,61.30
2018-08-28T18:20:40.905Z,61.90
2018-08-28T18:23:20.909Z,61.40
2018-08-28T18:25:58.702Z,61.60
2018-08-28T18:28:45.438Z,62.50
2018-08-28T18:31:15.617Z,60.60
2018-08-28T18:33:44.870Z,61.20
2018-08-28T18:36:16.621Z,60.80
2018-08-28T18:38:45.031Z,62.50
2018-08-28T18:41:13.410Z,62.20
2018-08-28T18:43:41.960Z,63.40
2018-08-28T18:46:10.260Z,63.10
2018-08-28T18:48:51.000Z,63.20
2018-08-28T18:51:32.821Z,64.40
2018-08-28T18:54:02.203Z,64.40
2018-08-28T18:56:31.947Z,65.20
2018-08-28T18:59:15.121Z,65.40
2018-08-28T19:01:46.402Z,66.10
2018-08-28T19:04:28.013Z,67.00
2018-08-28T19:09:53.385Z,66.70
2018-08-28T19:12:21.836Z,67.20
2018-08-28T19:14:51.340Z,66.70
2018-08-28T19:17:36.231Z,67.90
2018-08-28T19:20:07.472Z,68.00
2018-08-28T19:22:36.912Z,68.60
2018-08-28T19:25:05.374Z,69.20
2018-08-28T19:27:33.626Z,68.40
2018-08-28T19:30:03.194Z,68.70
2018-08-28T19:32:45.924Z,68.50
2018-08-28T19:35:14.437Z,68.50
2018-08-28T19:37:42.725Z,68.80
2018-08-28T19:40:10.961Z,69.30
2018-08-28T19:42:39.244Z,69.20
2018-08-28T19:45:07.481Z,68.70
2018-08-28T19:47:35.739Z,68.60
2018-08-28T19:50:04.253Z,69.30
2018-08-28T19:52:51.013Z,69.30
2018-08-28T19:55:21.440Z,69.00
2018-08-28T19:57:50.918Z,68.80
2018-08-28T20:00:23.115Z,69.10
2018-08-28T20:02:56.041Z,69.70
2018-08-28T20:05:25.628Z,69.70
2018-08-28T20:07:53.918Z,69.10
2018-08-28T20:10:22.153Z,69.60
2018-08-28T20:12:50.537Z,69.10
2018-08-28T20:15:18.783Z,70.20
2018-08-28T20:17:47.013Z,70.20
2018-08-28T20:20:15.257Z,69.90
2018-08-28T20:22:43.519Z,70.00
2018-08-28T20:25:13.510Z,70.20
2018-08-28T20:27:41.759Z,69.70
2018-08-28T20:30:11.084Z,70.20
2018-08-28T20:32:43.157Z,70.10
2018-08-28T20:35:15.993Z,71.60
2018-08-28T20:37:44.564Z,69.90
2018-08-28T20:40:12.769Z,70.00
2018-08-28T20:42:40.962Z,70.90
2018-08-28T20:45:09.357Z,70.90
2018-08-28T20:47:37.614Z,70.60
2018-08-28T20:50:09.070Z,70.20
2018-08-28T20:52:37.352Z,71.60
2018-08-28T20:55:05.876Z,71.40
2018-08-28T20:57:34.348Z,72.50
2018-08-28T21:00:02.649Z,71.60
2018-08-28T21:02:30.889Z,71.30
2018-08-28T21:05:00.151Z,71.60
2018-08-28T21:07:28.653Z,73.10
2018-08-28T21:09:56.884Z,73.70
2018-08-28T21:12:25.144Z,74.10
2018-08-28T21:14:53.392Z,74.40
2018-08-28T21:17:22.412Z,74.80
2018-08-28T21:19:50.646Z,75.00
2018-08-28T21:22:19.484Z,75.00
2018-08-28T21:24:47.730Z,75.40
2018-08-28T21:27:16.004Z,75.90
2018-08-28T21:29:44.234Z,76.70
2018-08-28T21:32:12.458Z,76.80
2018-08-28T21:34:40.656Z,77.70
2018-08-28T21:37:09.084Z,77.70
2018-08-28T21:39:37.292Z,78.10
2018-08-28T21:42:05.503Z,78.50
2018-08-28T21:44:33.725Z,78.30
2018-08-28T21:47:01.969Z,78.60
2018-08-28T21:49:30.228Z,78.90
2018-08-28T21:51:58.441Z,79.40
2018-08-28T21:54:26.649Z,79.00
2018-08-28T21:56:54.937Z,79.20
2018-08-28T21:59:23.162Z,79.60
2018-08-28T22:01:51.385Z,79.10
2018-08-28T22:04:19.654Z,78.80
2018-08-28T22:06:53.263Z,79.50
2018-08-28T22:09:21.501Z,79.50
2018-08-28T22:11:49.713Z,78.40
2018-08-28T22:14:17.903Z,79.30
2018-08-28T22:16:46.104Z,79.20
2018-08-28T22:19:14.410Z,78.90
2018-08-28T22:21:42.657Z,78.20
2018-08-28T22:24:10.862Z,78.00
2018-08-28T22:26:39.073Z,77.80
2018-08-28T22:29:07.308Z,77.80
2018-08-28T22:31:35.544Z,78.10
2018-08-28T22:34:04.045Z,78.10
2018-08-28T22:36:32.229Z,78.00
2018-08-28T22:39:00.421Z,77.80
2018-08-28T22:41:28.608Z,77.80
2018-08-28T22:43:56.800Z,78.00
2018-08-28T22:46:24.978Z,78.50
2018-08-28T22:48:53.228Z,78.20
2018-08-28T22:51:21.425Z,79.00
2018-08-28T22:53:49.653Z,78.80
2018-08-28T22:56:17.860Z,80.20
2018-08-28T22:58:46.058Z,79.90
2018-08-28T23:01:14.309Z,79.50
2018-08-28T23:03:42.532Z,79.70
2018-08-28T23:06:10.756Z,79.20
2018-08-28T23:08:38.965Z,79.30
2018-08-28T23:11:07.162Z,80.40
2018-08-28T23:13:35.363Z,80.60
2018-08-28T23:16:03.939Z,82.10
2018-08-28T23:18:32.144Z,81.90
2018-08-28T23:21:00.340Z,81.80
2018-08-28T23:23:28.591Z,81.90
2018-08-28T23:25:56.820Z,80.90
2018-08-28T23:28:25.055Z,80.70
2018-08-28T23:30:53.252Z,80.30
2018-08-28T23:33:21.491Z,80.10
2018-08-28T23:35:49.659Z,80.20
2018-08-28T23:38:17.848Z,80.10
2018-08-28T23:40:46.033Z,80.10
2018-08-28T23:43:14.211Z,80.20
2018-08-28T23:45:42.402Z,80.20
2018-08-28T23:48:10.654Z,80.60
2018-08-28T23:50:38.904Z,81.60
2018-08-28T23:53:07.083Z,81.80
2018-08-28T23:55:35.549Z,82.60
2018-08-28T23:58:03.768Z,82.20
